首页
METAR-TAF:

METAR-TAF

机场 :

雅典, 喬治亞, 美国

纬度: 33-57-03N, 经度: 083-19-41W, 海拔: 246米

当前天气观测

该预报发布于24分钟前的03:51 UTC
风速4节,风向北转西北
温度 13°C
湿度 54%
气压 1019 hPa
能見度: 16.1公里
天空无云

METAR: KAHN 170351Z AUTO 33004KT 10SM CLR 13/04 A3009 RMK AO2 SLP185 T01280039 TSNO

时间: 00:15 (04:15 UTC)

预报

该预报发布于4小时和53分钟前的23:22 UTC
预报有效从17日的 00点(UTC)到 17日的 24点(UTC)
风速10节,风向西北,有时为15节阵风
能見度: 10公里
天空无云
从 17日的 0200点(UTC)
风速9节,风向西北
能見度: 10公里
天空无云
从 17日的 0500点(UTC)
风速6节,风向西北
能見度: 10公里
天空无云
从 17日的 1400点(UTC)
风速5节,风向北转西北
能見度: 10公里
天空无云

TAF: KAHN 162322Z 1700/1724 31010G15KT P6SM SKC FM170200 32009KT P6SM SKC FM170500 32006KT P6SM SKC FM171400 34005KT P6SM SKC

超过4000个机场的气象观测和天气预报(METAR&TAF报告)。

可查询的气象台以黄色和红色小点在地图上表示。

将鼠标移到小点上方,可查看气象台名称。

然后点击查看天气观测和预报。

如需切换地图:点击带黑十字的绿色按钮放大地图;点击带横线的绿色按钮缩小地图;或者点击绿色箭头查看邻近地区的地图。


METAR-TAF: